createdAt,value
2022-11-12T00:01:47.687Z,100211.91
2022-11-12T00:04:19.718Z,100215.95
2022-11-12T00:06:52.397Z,100218.14
2022-11-12T00:09:24.106Z,100219.20
2022-11-12T00:11:55.768Z,100227.75
2022-11-12T00:14:27.399Z,100229.80
2022-11-12T00:16:58.993Z,100226.73
2022-11-12T00:19:30.731Z,100227.91
2022-11-12T00:22:02.511Z,100223.18
2022-11-12T00:24:34.182Z,100222.27
2022-11-12T00:27:05.953Z,100217.66
2022-11-12T00:29:39.010Z,100214.98
2022-11-12T00:32:13.779Z,100211.55
2022-11-12T00:34:45.690Z,100215.60
2022-11-12T00:37:18.802Z,100218.18
2022-11-12T00:39:50.487Z,100213.64
2022-11-12T00:42:22.370Z,100220.06
2022-11-12T00:44:53.972Z,100212.34
2022-11-12T00:47:25.736Z,100213.98
2022-11-12T00:49:57.618Z,100212.55
2022-11-12T00:52:29.426Z,100212.27
2022-11-12T00:55:01.057Z,100210.07
2022-11-12T00:57:32.872Z,100212.56
2022-11-12T01:00:05.268Z,100217.03
2022-11-12T01:02:43.312Z,100215.73
2022-11-12T01:05:17.786Z,100215.48
2022-11-12T01:07:55.664Z,100210.56
2022-11-12T01:10:27.726Z,100213.48
2022-11-12T01:12:59.441Z,100208.03
2022-11-12T01:15:32.301Z,100210.38
2022-11-12T01:18:03.961Z,100208.89
2022-11-12T01:20:38.759Z,100215.36
2022-11-12T01:23:10.586Z,100210.44
2022-11-12T01:25:42.295Z,100207.81
2022-11-12T01:28:14.024Z,100205.42
2022-11-12T01:30:45.730Z,100204.65
2022-11-12T01:33:17.658Z,100209.66
2022-11-12T01:35:49.286Z,100213.15
2022-11-12T01:38:20.971Z,100216.06
2022-11-12T01:40:52.553Z,100218.02
2022-11-12T01:43:24.254Z,100216.61
2022-11-12T01:45:56.012Z,100216.38
2022-11-12T01:48:31.170Z,100218.95
2022-11-12T01:51:04.785Z,100218.98
2022-11-12T01:53:37.615Z,100221.58
2022-11-12T01:56:10.357Z,100216.98
2022-11-12T01:58:45.343Z,100215.81
2022-11-12T02:01:17.055Z,100216.38
2022-11-12T02:03:49.838Z,100213.48
2022-11-12T02:06:23.758Z,100211.35
2022-11-12T02:08:56.964Z,100217.70
2022-11-12T02:11:29.698Z,100218.83
2022-11-12T02:14:05.318Z,100219.83
2022-11-12T02:16:40.123Z,100221.40
2022-11-12T02:19:15.464Z,100226.05
2022-11-12T02:21:47.458Z,100218.19
2022-11-12T02:24:38.072Z,100217.28
2022-11-12T02:27:12.601Z,100221.67
2022-11-12T02:29:47.299Z,100225.14
2022-11-12T02:32:19.151Z,100223.54
2022-11-12T02:34:50.788Z,100220.02
2022-11-12T02:37:22.458Z,100222.11
2022-11-12T02:39:54.205Z,100221.67
2022-11-12T02:42:25.783Z,100219.69
2022-11-12T02:44:57.451Z,100223.30
2022-11-12T02:47:29.119Z,100219.88
2022-11-12T02:50:00.866Z,100220.48
2022-11-12T02:52:33.029Z,100216.97
2022-11-12T02:55:05.330Z,100219.73
2022-11-12T02:57:37.489Z,100217.09
2022-11-12T03:00:13.650Z,100216.98
2022-11-12T03:02:59.313Z,100217.19
2022-11-12T03:05:34.950Z,100219.79
2022-11-12T03:08:09.798Z,100222.41
2022-11-12T03:10:41.885Z,100219.61
2022-11-12T03:13:13.725Z,100222.05
2022-11-12T03:15:45.698Z,100222.94
2022-11-12T03:18:17.404Z,100222.11
2022-11-12T03:23:37.668Z,100218.14
2022-11-12T03:26:09.449Z,100218.30
2022-11-12T03:28:41.260Z,100218.89
2022-11-12T03:31:13.078Z,100217.23
2022-11-12T03:33:44.773Z,100217.55
2022-11-12T03:36:16.442Z,100213.27
2022-11-12T03:38:48.107Z,100215.31
2022-11-12T03:41:19.818Z,100214.38
2022-11-12T03:43:51.874Z,100216.38
2022-11-12T03:46:23.614Z,100215.63
2022-11-12T03:48:55.407Z,100216.23
2022-11-12T03:51:27.261Z,100210.47
2022-11-12T03:53:59.111Z,100210.20
2022-11-12T03:56:30.932Z,100204.80
2022-11-12T03:59:02.817Z,100206.84
2022-11-12T04:01:34.773Z,100204.17
2022-11-12T04:04:06.806Z,100206.77
2022-11-12T04:06:56.125Z,100201.91
2022-11-12T04:09:27.760Z,100206.33
2022-11-12T04:12:19.846Z,100203.39
2022-11-12T04:14:51.482Z,100200.67
2022-11-12T04:17:41.136Z,100203.83
2022-11-12T04:20:45.564Z,100206.66
2022-11-12T04:23:15.651Z,100205.70
2022-11-12T04:26:05.203Z,100205.38
2022-11-12T04:28:36.945Z,100195.91
2022-11-12T04:31:09.062Z,100197.83
2022-11-12T04:33:40.842Z,100198.20
2022-11-12T04:36:12.638Z,100202.49
2022-11-12T04:38:44.455Z,100201.71
2022-11-12T04:41:33.706Z,100202.59
2022-11-12T04:44:22.999Z,100200.69
2022-11-12T04:46:54.682Z,100198.58
2022-11-12T04:49:26.294Z,100202.84
2022-11-12T04:52:07.050Z,100201.45
2022-11-12T04:54:38.735Z,100195.58
2022-11-12T04:57:10.386Z,100188.78
2022-11-12T04:59:42.027Z,100190.11
2022-11-12T05:02:13.802Z,100194.13
2022-11-12T05:04:45.466Z,100191.72
2022-11-12T05:07:18.352Z,100190.97
2022-11-12T05:09:50.068Z,100188.26
2022-11-12T05:12:21.812Z,100187.19
2022-11-12T05:14:53.524Z,100195.89
2022-11-12T05:17:25.230Z,100194.91
2022-11-12T05:19:56.865Z,100191.42
2022-11-12T05:22:43.255Z,100191.67
2022-11-12T05:25:17.718Z,100192.56
2022-11-12T05:27:49.437Z,100191.34
2022-11-12T05:30:21.400Z,100195.48
2022-11-12T05:32:53.139Z,100198.52
2022-11-12T05:35:24.825Z,100199.27
2022-11-12T05:37:56.677Z,100202.20
2022-11-12T05:40:28.324Z,100203.02
2022-11-12T05:43:00.007Z,100205.70
2022-11-12T05:45:31.607Z,100204.96
2022-11-12T05:48:03.300Z,100207.27
2022-11-12T05:50:40.192Z,100212.02
2022-11-12T05:53:23.549Z,100216.76
2022-11-12T05:55:55.190Z,100219.20
2022-11-12T05:58:27.315Z,100221.32
2022-11-12T06:00:59.163Z,100222.15
2022-11-12T06:03:32.482Z,100219.29
2022-11-12T06:06:04.168Z,100217.38
2022-11-12T06:08:35.788Z,100221.14
2022-11-12T06:11:07.836Z,100225.45
2022-11-12T06:13:39.826Z,100234.02
2022-11-12T06:16:12.500Z,100236.85
2022-11-12T06:18:44.166Z,100236.15
2022-11-12T06:21:23.118Z,100236.16
2022-11-12T06:23:57.952Z,100237.66
2022-11-12T06:26:30.810Z,100240.12
2022-11-12T06:29:02.446Z,100243.96
2022-11-12T06:31:34.080Z,100243.25
2022-11-12T06:34:07.126Z,100241.53
2022-11-12T06:36:39.095Z,100242.82
2022-11-12T06:39:12.389Z,100237.81
2022-11-12T06:41:44.105Z,100238.41
2022-11-12T06:44:21.769Z,100238.65
2022-11-12T06:46:54.292Z,100243.75
2022-11-12T06:49:25.966Z,100247.81
2022-11-12T06:51:57.651Z,100248.80
2022-11-12T06:54:29.371Z,100254.05
2022-11-12T06:57:02.592Z,100256.84
2022-11-12T06:59:34.227Z,100260.97
2022-11-12T07:02:06.755Z,100260.85
2022-11-12T07:04:38.440Z,100264.39
2022-11-12T07:07:10.965Z,100264.27
2022-11-12T07:09:42.997Z,100263.27
2022-11-12T07:12:14.722Z,100270.54
2022-11-12T07:14:46.693Z,100270.19
2022-11-12T07:17:18.400Z,100262.48
2022-11-12T07:19:49.993Z,100255.63
2022-11-12T07:22:21.607Z,100249.84
2022-11-12T07:24:53.614Z,100248.95
2022-11-12T07:27:25.370Z,100253.86
2022-11-12T07:29:57.205Z,100256.96
2022-11-12T07:32:28.983Z,100254.33
2022-11-12T07:35:00.803Z,100246.86
2022-11-12T07:37:32.481Z,100247.30
2022-11-12T07:40:04.865Z,100250.00
2022-11-12T07:42:38.365Z,100253.63
2022-11-12T07:45:11.306Z,100253.15
2022-11-12T07:47:43.072Z,100253.17
2022-11-12T07:50:15.026Z,100252.55
2022-11-12T07:52:46.681Z,100255.52
2022-11-12T07:55:18.450Z,100255.71
2022-11-12T07:57:50.039Z,100258.42
2022-11-12T08:00:24.231Z,100263.71
2022-11-12T08:02:55.910Z,100263.90
2022-11-12T08:05:28.584Z,100261.59
2022-11-12T08:08:00.310Z,100254.89
2022-11-12T08:10:32.087Z,100254.36
2022-11-12T08:13:04.010Z,100256.00
2022-11-12T08:15:35.702Z,100258.50
2022-11-12T08:18:07.543Z,100260.82
2022-11-12T08:20:39.177Z,100268.18
2022-11-12T08:23:11.268Z,100271.95
2022-11-12T08:25:43.062Z,100278.05
2022-11-12T08:28:14.762Z,100273.14
2022-11-12T08:30:47.445Z,100265.08
2022-11-12T08:33:20.657Z,100273.91
2022-11-12T08:35:52.314Z,100284.17
2022-11-12T08:38:24.323Z,100280.52
2022-11-12T08:40:56.163Z,100273.03
2022-11-12T08:43:27.980Z,100272.38
2022-11-12T08:46:00.867Z,100280.36
2022-11-12T08:48:34.453Z,100283.19
2022-11-12T08:51:05.725Z,100282.30
2022-11-12T08:53:38.576Z,100281.89
2022-11-12T08:56:11.349Z,100278.12
2022-11-12T08:58:43.126Z,100276.18
2022-11-12T09:01:14.746Z,100275.46
2022-11-12T09:03:46.503Z,100278.52
2022-11-12T09:06:19.271Z,100279.08
2022-11-12T09:08:50.906Z,100282.45
2022-11-12T09:11:22.831Z,100283.89
2022-11-12T09:13:56.626Z,100283.52
2022-11-12T09:16:28.659Z,100283.95
2022-11-12T09:19:00.398Z,100285.29
2022-11-12T09:21:32.106Z,100283.83
2022-11-12T09:24:03.946Z,100283.52
2022-11-12T09:26:35.627Z,100279.01
2022-11-12T09:29:07.239Z,100279.89
2022-11-12T09:31:38.965Z,100277.21
2022-11-12T09:34:10.626Z,100273.04
2022-11-12T09:36:42.338Z,100273.31
2022-11-12T09:39:14.219Z,100267.98
2022-11-12T09:41:46.046Z,100269.85
2022-11-12T09:44:22.082Z,100271.56
2022-11-12T09:46:59.711Z,100269.94
2022-11-12T09:49:37.536Z,100267.39
2022-11-12T09:52:17.840Z,100267.75
2022-11-12T09:54:59.608Z,100267.44
2022-11-12T09:57:31.619Z,100275.78
2022-11-12T10:00:04.150Z,100276.61
2022-11-12T10:02:43.790Z,100274.63
2022-11-12T10:05:38.275Z,100270.70
2022-11-12T10:08:33.134Z,100267.30
2022-11-12T10:11:18.407Z,100269.06
2022-11-12T10:14:02.408Z,100261.20
2022-11-12T10:16:45.160Z,100258.83
2022-11-12T10:19:47.683Z,100262.68
2022-11-12T10:22:36.473Z,100266.04
2022-11-12T10:25:16.828Z,100265.24
2022-11-12T10:27:49.426Z,100265.39
2022-11-12T10:30:23.836Z,100255.38
2022-11-12T10:32:55.721Z,100250.10
2022-11-12T10:35:27.687Z,100254.06
2022-11-12T10:38:04.178Z,100254.02
2022-11-12T10:40:39.039Z,100259.80
2022-11-12T10:43:24.668Z,100254.63
2022-11-12T10:46:19.834Z,100254.94
2022-11-12T10:48:59.891Z,100248.85
2022-11-12T10:51:34.803Z,100253.34
2022-11-12T10:57:26.543Z,100250.63
2022-11-12T11:00:16.682Z,100254.78
2022-11-12T11:02:54.810Z,100257.25
2022-11-12T11:05:38.280Z,100256.26
2022-11-12T11:08:13.555Z,100251.95
2022-11-12T11:10:45.251Z,100248.48
2022-11-12T11:13:28.697Z,100253.20
2022-11-12T11:16:05.956Z,100251.02
2022-11-12T11:18:39.873Z,100252.81
2022-11-12T11:21:41.831Z,100250.55
2022-11-12T11:24:27.543Z,100251.14
2022-11-12T11:27:05.311Z,100254.66
2022-11-12T11:29:48.923Z,100251.90
2022-11-12T11:32:37.709Z,100250.17
2022-11-12T11:35:22.382Z,100253.92
2022-11-12T11:38:07.197Z,100249.38
2022-11-12T11:40:42.220Z,100245.23
2022-11-12T11:43:34.011Z,100241.76
2022-11-12T11:46:15.317Z,100240.19
2022-11-12T11:49:08.214Z,100239.45
2022-11-12T11:51:54.414Z,100239.73
2022-11-12T11:54:52.310Z,100233.34
2022-11-12T11:57:30.604Z,100231.23
2022-11-12T12:00:13.694Z,100232.54
2022-11-12T12:03:06.578Z,100230.78
2022-11-12T12:05:44.992Z,100230.63
2022-11-12T12:08:25.998Z,100225.33
2022-11-12T12:11:09.649Z,100228.87
2022-11-12T12:14:01.279Z,100233.13
2022-11-12T12:16:44.821Z,100231.80
2022-11-12T12:19:28.720Z,100228.48
2022-11-12T12:22:00.861Z,100225.65
2022-11-12T12:24:37.813Z,100225.40
2022-11-12T12:27:14.592Z,100222.70
2022-11-12T12:29:51.068Z,100222.80
2022-11-12T12:32:28.238Z,100222.04
2022-11-12T12:35:12.374Z,100225.59
2022-11-12T12:37:51.826Z,100226.89
2022-11-12T12:40:31.377Z,100221.09
2022-11-12T12:43:09.406Z,100219.73
2022-11-12T12:45:45.244Z,100216.11
2022-11-12T12:48:22.554Z,100215.19
2022-11-12T12:50:55.654Z,100207.48
2022-11-12T12:53:37.972Z,100206.60
2022-11-12T12:56:47.603Z,100205.66
2022-11-12T12:59:26.488Z,100207.28
2022-11-12T13:02:00.418Z,100206.39
2022-11-12T13:04:54.198Z,100204.19
2022-11-12T13:07:44.681Z,100199.23
2022-11-12T13:10:50.237Z,100198.14
2022-11-12T13:13:33.573Z,100193.12
2022-11-12T13:16:06.811Z,100194.59
2022-11-12T13:19:00.775Z,100190.04
2022-11-12T13:21:32.619Z,100192.50
2022-11-12T13:24:11.043Z,100193.29
2022-11-12T13:26:58.235Z,100190.70
2022-11-12T13:29:47.706Z,100194.09
2022-11-12T13:32:42.068Z,100196.19
2022-11-12T13:35:32.541Z,100208.25
2022-11-12T13:38:12.936Z,100204.86
2022-11-12T13:40:51.742Z,100203.65
2022-11-12T13:43:32.511Z,100207.96
2022-11-12T13:46:29.055Z,100207.52
2022-11-12T13:49:05.706Z,100207.13
2022-11-12T13:51:46.967Z,100209.08
2022-11-12T13:54:30.861Z,100202.65
2022-11-12T13:57:14.932Z,100201.38
2022-11-12T13:59:49.971Z,100202.49
2022-11-12T14:02:27.411Z,100194.91
2022-11-12T14:05:00.363Z,100188.31
2022-11-12T14:07:44.807Z,100188.96
2022-11-12T14:10:35.925Z,100187.44
2022-11-12T14:13:35.311Z,100182.73
2022-11-12T14:16:27.273Z,100180.68
2022-11-12T14:19:22.847Z,100181.10
2022-11-12T14:22:12.563Z,100185.11
2022-11-12T14:24:46.058Z,100182.29
2022-11-12T14:27:37.359Z,100183.45
2022-11-12T14:30:22.018Z,100179.31
2022-11-12T14:32:58.588Z,100173.52
2022-11-12T14:35:33.451Z,100175.17
2022-11-12T14:38:12.415Z,100170.91
2022-11-12T14:40:51.541Z,100170.59
2022-11-12T14:43:32.553Z,100173.34
2022-11-12T14:46:06.395Z,100175.82
2022-11-12T14:48:50.190Z,100175.09
2022-11-12T14:51:23.890Z,100177.02
2022-11-12T14:53:55.954Z,100172.86
2022-11-12T14:56:35.779Z,100172.40
2022-11-12T14:59:08.489Z,100170.19
2022-11-12T15:02:26.655Z,100169.90
2022-11-12T15:04:39.239Z,100173.92
2022-11-12T15:07:26.669Z,100174.06
2022-11-12T15:09:58.562Z,100176.62
2022-11-12T15:12:32.706Z,100175.32
2022-11-12T15:15:21.345Z,100175.55
2022-11-12T15:17:59.684Z,100172.52
2022-11-12T15:20:31.669Z,100169.02
2022-11-12T15:23:04.719Z,100173.02
2022-11-12T15:25:36.578Z,100175.86
2022-11-12T15:28:25.151Z,100176.63
2022-11-12T15:31:17.394Z,100177.70
2022-11-12T15:33:49.203Z,100175.23
2022-11-12T15:36:24.128Z,100180.80
2022-11-12T15:38:56.863Z,100177.68
2022-11-12T15:41:31.663Z,100181.69
2022-11-12T15:44:03.428Z,100182.85
2022-11-12T15:46:35.493Z,100186.96
2022-11-12T15:49:14.144Z,100192.98
2022-11-12T15:51:46.321Z,100192.11
2022-11-12T15:54:17.927Z,100188.43
2022-11-12T15:56:50.024Z,100193.27
2022-11-12T15:59:21.694Z,100196.73
2022-11-12T16:01:53.511Z,100200.48
2022-11-12T16:04:25.354Z,100199.59
2022-11-12T16:06:57.015Z,100199.81
2022-11-12T16:09:28.686Z,100204.49
2022-11-12T16:12:00.637Z,100208.00
2022-11-12T16:14:33.558Z,100205.33
2022-11-12T16:17:05.551Z,100205.05
2022-11-12T16:19:37.210Z,100208.27
2022-11-12T16:22:12.791Z,100207.30
2022-11-12T16:24:45.785Z,100209.64
2022-11-12T16:27:18.151Z,100207.00
2022-11-12T16:29:49.778Z,100207.54
2022-11-12T16:32:21.410Z,100206.17
2022-11-12T16:34:58.337Z,100201.47
2022-11-12T16:37:33.300Z,100199.14
2022-11-12T16:40:05.331Z,100201.08
2022-11-12T16:42:36.945Z,100204.31
2022-11-12T16:45:10.455Z,100207.91
2022-11-12T16:47:47.295Z,100209.09
2022-11-12T16:50:22.797Z,100213.70
2022-11-12T16:52:54.901Z,100214.31
2022-11-12T16:55:26.665Z,100218.89
2022-11-12T16:57:58.324Z,100218.58
2022-11-12T17:00:30.414Z,100227.45
2022-11-12T17:03:02.011Z,100230.09
2022-11-12T17:05:33.808Z,100235.44
2022-11-12T17:08:05.759Z,100238.89
2022-11-12T17:10:37.517Z,100243.92
2022-11-12T17:13:10.323Z,100245.89
2022-11-12T17:15:42.076Z,100242.48
2022-11-12T17:18:13.859Z,100244.10
2022-11-12T17:20:50.945Z,100246.23
2022-11-12T17:23:23.540Z,100240.56
2022-11-12T17:26:04.264Z,100242.53
2022-11-12T17:28:36.157Z,100241.25
2022-11-12T17:31:11.382Z,100239.57
2022-11-12T17:33:45.546Z,100237.54
2022-11-12T17:36:19.338Z,100237.45
2022-11-12T17:38:54.414Z,100235.15
2022-11-12T17:41:28.711Z,100232.38
2022-11-12T17:44:03.157Z,100228.89
2022-11-12T17:46:36.259Z,100225.54
2022-11-12T17:49:07.935Z,100229.04
2022-11-12T17:51:39.684Z,100227.20
2022-11-12T17:54:11.624Z,100226.63
2022-11-12T17:56:43.265Z,100224.09
2022-11-12T17:59:14.901Z,100229.09
2022-11-12T18:01:46.749Z,100228.60
2022-11-12T18:04:18.482Z,100228.91
2022-11-12T18:06:51.218Z,100230.79
2022-11-12T18:09:23.078Z,100228.52
2022-11-12T18:11:56.646Z,100229.38
2022-11-12T18:14:26.815Z,100220.40
2022-11-12T18:17:01.538Z,100225.77
2022-11-12T18:19:33.218Z,100227.58
2022-11-12T18:22:05.176Z,100229.86
2022-11-12T18:24:37.277Z,100236.23
2022-11-12T18:27:09.255Z,100228.14
2022-11-12T18:29:41.681Z,100231.56
2022-11-12T18:32:13.665Z,100230.09
2022-11-12T18:34:46.309Z,100226.08
2022-11-12T18:37:17.959Z,100238.98
2022-11-12T18:39:49.653Z,100232.05
2022-11-12T18:42:21.392Z,100232.29
2022-11-12T18:44:53.116Z,100236.98
2022-11-12T18:47:24.919Z,100237.34
2022-11-12T18:49:56.541Z,100238.28
2022-11-12T18:52:28.206Z,100244.80
2022-11-12T18:54:59.914Z,100244.42
2022-11-12T18:57:31.766Z,100242.84
2022-11-12T19:00:03.631Z,100249.83
2022-11-12T19:02:35.280Z,100250.86
2022-11-12T19:05:08.208Z,100250.55
2022-11-12T19:07:40.135Z,100254.96
2022-11-12T19:10:15.102Z,100258.07
2022-11-12T19:12:47.055Z,100251.77
2022-11-12T19:15:22.759Z,100256.79
2022-11-12T19:17:57.366Z,100259.33
2022-11-12T19:20:29.538Z,100257.73
2022-11-12T19:23:01.333Z,100256.23
2022-11-12T19:25:35.289Z,100253.70
2022-11-12T19:28:07.354Z,100256.23
2022-11-12T19:30:39.335Z,100258.44
2022-11-12T19:33:11.037Z,100262.30
2022-11-12T19:35:43.287Z,100264.30
2022-11-12T19:38:15.267Z,100263.52
2022-11-12T19:40:47.300Z,100265.39
2022-11-12T19:43:19.736Z,100264.95
2022-11-12T19:45:51.481Z,100273.50
2022-11-12T19:48:23.210Z,100268.57
2022-11-12T19:50:58.243Z,100272.33
2022-11-12T19:53:34.083Z,100271.12
2022-11-12T19:56:07.817Z,100267.67
2022-11-12T19:58:38.000Z,100270.54
2022-11-12T20:01:11.604Z,100264.76
2022-11-12T20:03:43.718Z,100270.43
2022-11-12T20:06:18.733Z,100267.63
2022-11-12T20:08:50.493Z,100274.20
2022-11-12T20:11:22.433Z,100274.77
2022-11-12T20:13:56.134Z,100274.73
2022-11-12T20:16:26.364Z,100274.93
2022-11-12T20:18:58.108Z,100276.36
2022-11-12T20:21:32.442Z,100276.45
2022-11-12T20:24:04.534Z,100271.54
2022-11-12T20:26:36.986Z,100273.21
2022-11-12T20:29:08.643Z,100281.58
2022-11-12T20:31:41.945Z,100278.63
2022-11-12T20:34:15.046Z,100275.78
2022-11-12T20:36:46.881Z,100276.98
2022-11-12T20:39:18.671Z,100272.48
2022-11-12T20:41:50.457Z,100275.55
2022-11-12T20:44:22.229Z,100277.35
2022-11-12T20:46:53.921Z,100272.19
2022-11-12T20:49:25.619Z,100275.05
2022-11-12T20:51:57.366Z,100278.50
2022-11-12T20:54:29.140Z,100282.90
2022-11-12T20:57:03.092Z,100282.42
2022-11-12T20:59:41.059Z,100280.56
2022-11-12T21:02:13.417Z,100279.08
2022-11-12T21:04:45.215Z,100281.36
2022-11-12T21:07:16.935Z,100283.06
2022-11-12T21:09:48.745Z,100278.05
2022-11-12T21:12:20.502Z,100272.58
2022-11-12T21:14:52.382Z,100273.71
2022-11-12T21:17:24.089Z,100271.72
2022-11-12T21:19:55.747Z,100275.60
2022-11-12T21:22:27.394Z,100273.30
2022-11-12T21:24:59.129Z,100276.45
2022-11-12T21:27:30.887Z,100280.91
2022-11-12T21:30:02.606Z,100289.39
2022-11-12T21:32:34.402Z,100285.30
2022-11-12T21:35:06.616Z,100284.59
2022-11-12T21:37:38.451Z,100281.98
2022-11-12T21:40:12.194Z,100278.79
2022-11-12T21:42:44.682Z,100278.98
2022-11-12T21:45:16.955Z,100287.53
2022-11-12T21:47:48.821Z,100286.03
2022-11-12T21:50:21.135Z,100284.77
2022-11-12T21:52:52.954Z,100281.73
2022-11-12T21:55:24.725Z,100289.27
2022-11-12T21:57:56.483Z,100285.94
2022-11-12T22:00:41.536Z,100276.37
2022-11-12T22:03:14.278Z,100271.91
2022-11-12T22:05:45.954Z,100273.91
2022-11-12T22:08:17.904Z,100283.05
2022-11-12T22:10:49.614Z,100281.45
2022-11-12T22:13:27.002Z,100279.92
2022-11-12T22:15:59.483Z,100275.45
2022-11-12T22:18:33.163Z,100276.48
2022-11-12T22:21:04.258Z,100260.34
2022-11-12T22:23:36.909Z,100272.25
2022-11-12T22:26:11.535Z,100273.62
2022-11-12T22:28:43.522Z,100266.62
2022-11-12T22:31:18.579Z,100266.04
2022-11-12T22:33:50.825Z,100267.06
2022-11-12T22:36:24.917Z,100269.19
2022-11-12T22:38:57.102Z,100272.97
2022-11-12T22:41:30.533Z,100265.64
2022-11-12T22:44:03.522Z,100267.02
2022-11-12T22:46:36.611Z,100262.40
2022-11-12T22:49:08.192Z,100261.55
2022-11-12T22:51:39.835Z,100261.03
2022-11-12T22:54:15.844Z,100260.80
2022-11-12T22:56:47.479Z,100260.20
2022-11-12T22:59:19.130Z,100259.02
2022-11-12T23:01:50.866Z,100258.66
2022-11-12T23:04:23.701Z,100257.83
2022-11-12T23:06:55.331Z,100261.22
2022-11-12T23:09:28.006Z,100265.58
2022-11-12T23:11:59.794Z,100257.41
2022-11-12T23:14:31.437Z,100257.50
2022-11-12T23:17:03.657Z,100256.52
2022-11-12T23:19:35.306Z,100253.40
2022-11-12T23:22:08.232Z,100251.96
2022-11-12T23:24:41.047Z,100257.58
2022-11-12T23:27:12.684Z,100253.05
2022-11-12T23:29:44.333Z,100252.64
2022-11-12T23:32:16.030Z,100255.44
2022-11-12T23:34:47.951Z,100257.38
2022-11-12T23:37:19.603Z,100255.88
2022-11-12T23:39:51.342Z,100256.46
2022-11-12T23:42:23.048Z,100256.79
2022-11-12T23:44:54.671Z,100260.52
2022-11-12T23:47:26.452Z,100262.81
2022-11-12T23:49:58.162Z,100262.26
2022-11-12T23:52:29.822Z,100262.42
2022-11-12T23:55:01.443Z,100258.25
2022-11-12T23:57:33.827Z,100258.16
